Terminal Aerodrome Forecast
Issued by NWS Sterling, VA

Current Version | Previous Version | Graphics & Text | Print | Product List | Glossary Off
Versions: 1 2 3 4 5 6 7 8 9 10 11 12 13 14 15 16 17 18 19 20 21 22 23 24 25

000
FTUS41 KLWX 232320
TAFIAD
TAF
KIAD 232320Z 2400/2506 36004KT P6SM FEW090
     FM241500 34009KT P6SM SCT050
     FM241900 34009KT P6SM BKN050
     FM250000 VRB04KT P6SM BKN050=

USA.gov is the U.S. government's official web portal to all federal, state and local government web resources and services.